fechar
X Fechar
X Fechar

X Fechar
foto
Salvar nos Favoritos

X Fechar
foto
Clique e saiba mais
Clique e saiba mais
Clique e saiba mais
Clique e saiba mais
Clique e saiba mais
Clique e saiba mais
Clique e saiba mais

América Sports

Capacete Companhia

RM - Motocross Racing

Edgers Racing

RX Graphics

JPS Racing

Ohlins

DLua Racing

Toro Sports

> Notícias > Últimas Notícias

Mundial de Motocross: resultados e vídeo do MXGP de Trentino
Publicado em: 15/05/2016

Resultados da 8ª etapa em Pietramurata, MXGP de Trentino
Redação MotoX.com.br:

Em casa, Cairoli vence de novo!



Resultados das baterias

P. # MXGP Bateria1 Nat. Bike Time V Dif. Gap. M.V. in lap Speed
1 222 Cairoli, Antonio ITA KTM 33:50.549 19 0:00.000 0:00.000 1:45.026 7 56.9
2 12 Nagl, Maximilian GER Hus 33:52.483 19 0:01.934 0:01.934 1:44.718 7 57
3 22 Strijbos, Kevin BEL Suz 33:53.625 19 0:03.076 0:01.142 1:45.078 6 56.8
4 243 Gajser, Tim SLO Hon 33:56.134 19 0:05.585 0:02.509 1:43.790 7 57.5
5 89 Van Horebeek, Jeremy BEL Yam 33:58.327 19 0:07.778 0:02.193 1:45.074 6 56.8
6 461 Febvre, Romain FRA Yam 34:32.960 19 0:42.411 0:34.633 1:44.918 14 56.9
7 8 Townley, Ben NZL Suz 34:38.628 19 0:48.079 0:05.668 1:46.812 8 55.9
8 7 Leok, Tanel EST KTM 34:42.975 19 0:52.426 0:04.347 1:46.305 5 56.2
9 777 Bobryshev, Evgeny RUS Hon 34:48.468 19 0:57.919 0:05.493 1:46.773 17 55.9
10 23 Charlier, Christophe FRA Hus 34:49.629 19 0:59.080 0:01.161 1:46.264 5 56.2
11 24 Simpson, Shaun GBR KTM 35:00.226 19 1:09.677 0:10.597 1:47.837 6 55.4
12 100 Searle, Tommy GBR Kaw 35:01.739 19 1:11.190 0:01.513 1:46.394 19 56.1
13 911 Tixier, Jordi FRA Kaw 35:02.753 19 1:12.204 0:01.014 1:47.749 7 55.4
14 17 Butron, Jose ESP KTM 35:14.681 19 1:24.132 0:11.928 1:48.717 13 54.9
15 45 Nicholls, Jake GBR Hus 35:15.506 19 1:24.957 0:00.825 1:47.458 8 55.6
16 259 Coldenhoff, Glenn NED KTM 35:16.737 19 1:26.188 0:01.231 1:48.209 16 55.2
17 19 Philippaerts, David ITA Yam 35:25.470 19 1:34.921 0:08.733 1:48.616 13 55
18 400 Yamamoto, Kei JPN Hon 35:28.000 19 1:37.451 0:02.530 1:49.436 3 54.6
19 77 Lupino, Alessandro ITA Hon 35:30.863 19 1:40.314 0:02.863 1:49.178 13 54.7
20 156 Heidecke, Angus GER KTM 35:33.787 19 1:43.238 0:02.924 1:49.275 13 54.6
21 32 Potisek, Milko FRA Yam 35:38.902 19 1:48.353 0:05.115 1:49.140 1 66.6
22 999 Goncalves, Rui POR Hus 35:40.591 19 1:50.042 0:01.689 1:48.746 17 54.9
23 92 Guillod, Valentin SUI Yam 36:02.793 19 2:12.244 0:22.202 1:46.717 13 55.9
24 201 Soubeyras, Cedric FRA Yam 34:07.291 18 1 lap 1 lap 1:49.562 7 54.5
25 48 Irt, Peter SLO Yam 34:09.363 18 1 lap 0:02.072 1:50.686 6 53.9
26 430 Malin, Valtteri FIN KTM 34:09.893 18 1 lap 0:00.530 1:50.089 8 54.2
27 997 Righi, Riccardo ITA KTM 34:12.838 18 1 lap 0:02.945 1:49.944 4 54.3
28 5 Recchia, Nicola ITA Kaw 34:30.324 18 1 lap 0:17.486 1:50.030 7 54.3
29 920 Valentin, Ander ESP Kaw 34:34.077 18 1 lap 0:03.753 1:50.708 8 53.9
30 153 Maddii, Marco ITA Hus 34:36.231 18 1 lap 0:02.154 1:51.362 9 53.6
31 878 Pezzuto, Stefano ITA KTM 34:41.626 18 1 lap 0:05.395 1:50.594 9 54
32 214 Zeni, Samuel ITA Hon 35:04.260 18 1 lap 0:22.634 1:51.304 11 53.6
33 80 Marini, Thomas SMR Hus 35:48.839 18 1 lap 0:44.579 1:52.962 7 52.9
34 173 Bertuzzo, Pier Filippo ITA Hon 11:44.547 6 13 laps 12 laps 1:50.203 5 54.2

P. # MXGP Bateria 2 Nat. Bike Time V Dif. Gap. M.V. in lap Speed
1 461 Febvre, Romain FRA Yam 33:54.298 19 0:00.000 0:00.000 1:44.729 8 57
2 222 Cairoli, Antonio ITA KTM 33:54.863 19 0:00.565 0:00.565 1:45.428 13 56.6
3 777 Bobryshev, Evgeny RUS Hon 33:58.926 19 0:04.628 0:04.063 1:44.826 5 57
4 243 Gajser, Tim SLO Hon 34:00.954 19 0:06.656 0:02.028 1:44.623 12 57.1
5 89 Van Horebeek, Jeremy BEL Yam 34:06.869 19 0:12.571 0:05.915 1:44.982 11 56.9
6 22 Strijbos, Kevin BEL Suz 34:14.807 19 0:20.509 0:07.938 1:45.062 12 56.8
7 92 Guillod, Valentin SUI Yam 34:32.597 19 0:38.299 0:17.790 1:45.911 8 56.4
8 12 Nagl, Maximilian GER Hus 34:34.227 19 0:39.929 0:01.630 1:45.780 6 56.4
9 21 Paulin, Gautier FRA Hon 34:38.968 19 0:44.670 0:04.741 1:46.054 4 56.3
10 24 Simpson, Shaun GBR KTM 34:39.496 19 0:45.198 0:00.528 1:47.344 9 55.6
11 911 Tixier, Jordi FRA Kaw 34:47.433 19 0:53.135 0:07.937 1:47.277 8 55.7
12 77 Lupino, Alessandro ITA Hon 34:50.524 19 0:56.226 0:03.091 1:47.658 10 55.5
13 17 Butron, Jose ESP KTM 34:51.555 19 0:57.257 0:01.031 1:47.907 12 55.3
14 7 Leok, Tanel EST KTM 34:52.585 19 0:58.287 0:01.030 1:48.030 14 55.3
15 8 Townley, Ben NZL Suz 35:04.521 19 1:10.223 0:11.936 1:46.670 5 56
16 259 Coldenhoff, Glenn NED KTM 35:05.126 19 1:10.828 0:00.605 1:47.628 15 55.5
17 32 Potisek, Milko FRA Yam 35:10.359 19 1:16.061 0:05.233 1:48.061 16 55.3
18 400 Yamamoto, Kei JPN Hon 35:32.289 19 1:37.991 0:21.930 1:49.254 5 54.6
19 45 Nicholls, Jake GBR Hus 35:40.805 19 1:46.507 0:08.516 1:49.440 11 54.6
20 48 Irt, Peter SLO Yam 33:57.388 18 1 lap 1 lap 1:50.441 11 54.1
21 156 Heidecke, Angus GER KTM 33:59.545 18 1 lap 0:02.157 1:50.296 11 54.1
22 23 Charlier, Christophe FRA Hus 34:07.375 18 1 lap 0:07.830 1:47.295 17 55.6
23 5 Recchia, Nicola ITA Kaw 34:25.504 18 1 lap 0:18.129 1:50.726 11 53.9
24 173 Bertuzzo, Pier Filippo ITA Hon 34:27.438 18 1 lap 0:01.934 1:51.203 11 53.7
25 153 Maddii, Marco ITA Hus 34:30.464 18 1 lap 0:03.026 1:51.637 5 53.5
26 878 Pezzuto, Stefano ITA KTM 35:00.425 18 1 lap 0:29.961 1:51.568 10 53.5
27 80 Marini, Thomas SMR Hus 34:07.921 17 2 laps 1 lap 1:53.792 5 52.5
28 920 Valentin, Ander ESP Kaw 28:28.526 15 4 laps 2 laps 1:49.813 3 54.4
29 997 Righi, Riccardo ITA KTM 27:12.418 14 5 laps 1 lap 1:51.909 5 53.4
30 214 Zeni, Samuel ITA Hon 25:43.121 13 6 laps 1 lap 1:51.606 8 53.5
31 201 Soubeyras, Cedric FRA Yam 15:15.880 8 11 laps 5 laps 1:51.010 5 53.8
32 999 Goncalves, Rui POR Hus 13:18.267 7 12 laps 1 lap 1:49.634 5 54.5
33 100 Searle, Tommy GBR Kaw 11:24.717 6 13 laps 1 lap 1:48.597 4 55
34 430 Malin, Valtteri FIN KTM 4:14.077 2 17 laps 4 laps 1:54.048 2 52.3
35 19 Philippaerts, David ITA Yam 4:15.050 2 17 laps 0:00.973 1:57.137 2 51

Herlings vence o GP, mas fica sem a temporada perfeita.


 

P. # MX2 Bateria 1 Nat. Bike Time V Dif. Gap. M.V. in lap Speed
1 4 Ferrandis, Dylan FRA Kaw 33:59.380 19 0:00.000 0:00.000 1:45.089 3 56.8
2 84 Herlings, Jeffrey NED KTM 34:00.617 19 0:01.237 0:01.237 1:45.248 7 56.7
3 41 Jonass, Pauls LAT KTM 34:37.352 19 0:37.972 0:36.735 1:45.389 4 56.7
4 91 Seewer, Jeremy SUI Suz 34:38.314 19 0:38.934 0:00.962 1:46.524 4 56.1
5 99 Anstie, Max GBR Hus 34:53.199 19 0:53.819 0:14.885 1:46.792 14 55.9
6 321 Bernardini, Samuele ITA TM 34:58.039 19 0:58.659 0:04.840 1:44.725 3 57
7 59 Tonkov, Aleksandr RUS Yam 35:02.627 19 1:03.247 0:04.588 1:47.343 6 55.6
8 811 Sterry, Adam GBR KTM 35:03.458 19 1:04.078 0:00.831 1:46.966 3 55.8
9 18 Brylyakov, Vsevolod RUS Kaw 35:20.052 19 1:20.672 0:16.594 1:48.048 13 55.3
10 172 Van doninck, Brent BEL Yam 35:28.353 19 1:28.973 0:08.301 1:49.293 7 54.6
11 161 Östlund, Alvin SWE Yam 35:30.276 19 1:30.896 0:01.923 1:49.482 5 54.5
12 6 Paturel, Benoit FRA Yam 35:31.007 19 1:31.627 0:00.731 1:48.330 5 55.1
13 128 Monticelli, Ivo ITA KTM 35:34.224 19 1:34.844 0:03.217 1:48.864 4 54.8
14 152 Petrov, Petar BUL Kaw 35:34.775 19 1:35.395 0:00.551 1:49.415 7 54.6
15 338 Herbreteau, David FRA Hon 35:35.315 19 1:35.935 0:00.540 1:49.300 3 54.6
16 66 Larranaga Olano, Iker ESP KTM 35:38.998 19 1:39.618 0:03.683 1:49.112 3 54.7
17 223 Tropepe, Giuseppe ITA Hus 35:40.866 19 1:41.486 0:01.868 1:48.866 3 54.8
18 189 Bogers, Brian NED KTM 35:42.468 19 1:43.088 0:01.602 1:48.716 10 54.9
19 101 Zaragoza, Jorge ESP Hon 35:44.959 19 1:45.579 0:02.491 1:49.575 5 54.5
20 831 Wysocki, Tomasz POL KTM 35:47.699 19 1:48.319 0:02.740 1:49.283 6 54.6
21 747 Cervellin, Michele ITA Hon 33:23.364 18 1 lap 1 lap 1:48.277 4 55.1
22 95 Justs, Roberts LAT KTM 34:08.776 18 1 lap 0:45.412 1:50.222 9 54.2
23 200 Dunn, James GBR Hus 34:09.544 18 1 lap 0:00.768 1:50.333 9 54.1
24 88 van der Vlist, Freek NED Kaw 34:16.220 18 1 lap 0:06.676 1:48.694 6 54.9
25 951 Furlotti, Simone ITA Yam 34:16.898 18 1 lap 0:00.678 1:50.097 4 54.2
26 426 Mewse, Conrad GBR Hus 34:18.540 18 1 lap 0:01.642 1:50.017 9 54.3
27 97 Ivanov, Maykal Grisha BUL KTM 34:44.774 18 1 lap 0:26.234 1:51.274 4 53.7
28 142 Petrov, Ivan BUL KTM 34:48.784 18 1 lap 0:04.010 1:53.172 2 52.8
29 10 Vlaanderen, Calvin NED KTM 34:49.314 18 1 lap 0:00.530 1:49.987 6 54.3
30 474 Boulard, Bryan BEL Kaw 34:51.417 18 1 lap 0:02.103 1:51.804 8 53.4
31 945 Bourdon, Anthony FRA KTM 34:52.625 18 1 lap 0:01.208 1:52.579 8 53
32 132 Kutsar, Karel EST KTM 35:01.691 18 1 lap 0:09.066 1:50.734 3 53.9
33 79 Corneth, Jaap NED Yam 35:02.099 18 1 lap 0:00.408 1:52.583 9 53
34 14 Valente, Christopher SUI KTM 35:29.955 18 1 lap 0:27.856 1:52.971 3 52.8
35 490 Mataro Vilar, Francesc ESP Yam 34:24.104 17 2 laps 1 lap 1:50.633 3 54
36 43 De Bortoli, Davide ITA Hus 31:10.259 16 3 laps 1 lap 1:49.345 10 54.6
37 29 Jacobi, Henry GER Hon 26:27.010 14 5 laps 2 laps 1:49.309 9 54.6
38 15 Bonini, Davide ITA Hus 20:32.028 9 10 laps 5 laps 1:50.554 6 54
39 40 Zecchina, Simone ITA Yam 5:52.168 3 16 laps 6 laps 1:50.553 3 54

P. # MX2 Bateria 2 Nat. Bike Time V Dif. Gap. M.V. in lap Speed
1 84 Herlings, Jeffrey NED KTM 34:18.604 19 0:00.000 0:00.000 1:45.865 7 56.4
2 41 Jonass, Pauls LAT KTM 34:53.766 19 0:35.162 0:35.162 1:48.516 5 55
3 4 Ferrandis, Dylan FRA Kaw 34:56.939 19 0:38.335 0:03.173 1:47.371 6 55.6
4 189 Bogers, Brian NED KTM 35:13.307 19 0:54.703 0:16.368 1:49.292 3 54.6
5 6 Paturel, Benoit FRA Yam 35:14.048 19 0:55.444 0:00.741 1:48.446 6 55.1
6 321 Bernardini, Samuele ITA TM 35:25.453 19 1:06.849 0:11.405 1:48.860 6 54.8
7 95 Justs, Roberts LAT KTM 35:28.994 19 1:10.390 0:03.541 1:49.436 4 54.6
8 18 Brylyakov, Vsevolod RUS Kaw 35:30.104 19 1:11.500 0:01.110 1:48.803 6 54.9
9 152 Petrov, Petar BUL Kaw 35:30.816 19 1:12.212 0:00.712 1:48.622 7 55
10 747 Cervellin, Michele ITA Hon 35:31.437 19 1:12.833 0:00.621 1:48.586 6 55
11 59 Tonkov, Aleksandr RUS Yam 35:35.581 19 1:16.977 0:04.144 1:49.182 5 54.7
12 91 Seewer, Jeremy SUI Suz 35:38.468 19 1:19.864 0:02.887 1:48.333 13 55.1
13 128 Monticelli, Ivo ITA KTM 35:40.417 19 1:21.813 0:01.949 1:49.592 4 54.5
14 161 Östlund, Alvin SWE Yam 35:45.784 19 1:27.180 0:05.367 1:49.859 7 54.3
15 951 Furlotti, Simone ITA Yam 35:50.265 19 1:31.661 0:04.481 1:50.276 5 54.1
16 99 Anstie, Max GBR Hus 35:52.043 19 1:33.439 0:01.778 1:49.524 6 54.5
17 223 Tropepe, Giuseppe ITA Hus 35:54.585 19 1:35.981 0:02.542 1:50.596 7 54
18 831 Wysocki, Tomasz POL KTM 35:57.337 19 1:38.733 0:02.752 1:50.946 8 53.8
19 172 Van doninck, Brent BEL Yam 36:00.464 19 1:41.860 0:03.127 1:50.684 7 53.9
20 40 Zecchina, Simone ITA Yam 36:02.636 19 1:44.032 0:02.172 1:49.770 7 54.4
21 29 Jacobi, Henry GER Hon 36:14.709 19 1:56.105 0:12.073 1:50.487 11 54
22 426 Mewse, Conrad GBR Hus 34:20.903 18 1 lap 1 lap 1:50.505 6 54
23 10 Vlaanderen, Calvin NED KTM 34:30.970 18 1 lap 0:10.067 1:49.807 16 54.4
24 200 Dunn, James GBR Hus 34:42.921 18 1 lap 0:11.951 1:52.237 6 53.2
25 43 De Bortoli, Davide ITA Hus 34:48.279 18 1 lap 0:05.358 1:52.291 6 53.2
26 15 Bonini, Davide ITA Hus 34:57.704 18 1 lap 0:09.425 1:52.437 6 53.1
27 47 Coates, Paul GBR Yam 35:00.603 18 1 lap 0:02.899 1:53.010 7 52.8
28 97 Ivanov, Maykal Grisha BUL KTM 35:12.914 18 1 lap 0:12.311 1:54.002 10 52.4
29 14 Valente, Christopher SUI KTM 35:21.906 18 1 lap 0:08.992 1:53.890 4 52.4
30 132 Kutsar, Karel EST KTM 35:33.564 18 1 lap 0:11.658 1:53.739 12 52.5
31 474 Boulard, Bryan BEL Kaw 35:36.583 18 1 lap 0:03.019 1:54.293 2 52.2
32 945 Bourdon, Anthony FRA KTM 35:42.450 18 1 lap 0:05.867 1:56.151 5 51.4
33 142 Petrov, Ivan BUL KTM 35:43.004 18 1 lap 0:00.554 1:55.133 11 51.9
34 79 Corneth, Jaap NED Yam 34:29.871 17 2 laps 1 lap 1:52.640 5 53
35 66 Larranaga Olano, Iker ESP KTM 28:41.600 15 4 laps 2 laps 1:50.266 8 54.1
36 490 Mataro Vilar, Francesc ESP Yam 27:02.643 13 6 laps 2 laps 1:51.852 7 53.4
37 101 Zaragoza, Jorge ESP Hon 22:55.577 12 7 laps 1 lap 1:48.562 6 55
38 338 Herbreteau, David FRA Hon 17:23.067 9 10 laps 3 laps 1:50.727 8 53.9
39 811 Sterry, Adam GBR KTM 0:00.000 -1 20 laps 10 laps 0:00.000   0


Na segunda feira, todos os detalhes e fotos da etapa aqui no Motox.








Vídeos MotoX Connect



Acompanhe o MotoX no Facebook

Curso MotoX Ric Raspa
Brasil Racing
JPS Racing

© 2000 - 2017 MotoX MX1 Internet